Time;durP1;ratioP1;P1;durP2;ratioP2;P2;SDS_P1;SDS_P2;PMS_P1;PMS_P2;Temp;Humidity;BMP_temperature;BMP_pressure;BME280_temperature;BME280_humidity;BME280_pressure;Samples;Min_cycle;Max_cycle;Signal;HPM_P1;HPM_P2
2022/08/24 00:00:33;;;;;;;18.57;14.83;;;22.90;99.90;;;;;;4988111;28;20577;-51
2022/08/24 00:03:00;;;;;;;19.13;15.23;;;22.90;99.90;;;;;;4992789;28;20232;-52
2022/08/24 00:05:27;;;;;;;18.77;15.87;;;22.90;99.90;;;;;;4990084;28;20652;-52
2022/08/24 00:07:54;;;;;;;20.37;15.47;;;23.00;99.90;;;;;;4992422;28;20963;-53
2022/08/24 00:10:21;;;;;;;19.63;15.53;;;22.80;99.90;;;;;;4989143;28;20212;-51
2022/08/24 00:12:48;;;;;;;19.93;15.07;;;22.70;99.90;;;;;;4991734;28;20681;-52
2022/08/24 00:15:16;;;;;;;18.43;15.77;;;22.60;99.90;;;;;;4992775;28;20654;-51
2022/08/24 00:17:43;;;;;;;18.43;15.60;;;22.60;99.90;;;;;;4990136;28;20223;-53
2022/08/24 00:20:11;;;;;;;20.07;15.60;;;22.50;99.90;;;;;;4992144;28;20297;-52
2022/08/24 00:22:39;;;;;;;18.47;15.07;;;22.50;99.90;;;;;;4991654;28;20237;-53
2022/08/24 00:25:08;;;;;;;18.27;15.93;;;22.40;99.90;;;;;;4992007;28;20210;-51
2022/08/24 00:27:36;;;;;;;17.70;15.90;;;22.30;99.90;;;;;;4993445;28;20255;-52
2022/08/24 00:30:05;;;;;;;18.13;15.43;;;22.30;99.90;;;;;;4992862;28;20202;-53
2022/08/24 00:32:32;;;;;;;18.90;16.90;;;22.30;99.90;;;;;;4991774;28;20332;-52
2022/08/24 00:34:59;;;;;;;19.00;17.00;;;22.10;99.90;;;;;;4987845;28;20287;-51
2022/08/24 00:37:28;;;;;;;19.40;16.60;;;21.80;99.90;;;;;;4992974;28;20305;-51
2022/08/24 00:39:56;;;;;;;20.43;17.40;;;21.60;99.90;;;;;;4993313;28;20704;-52
2022/08/24 00:42:24;;;;;;;18.83;16.83;;;21.60;99.90;;;;;;4993200;28;20197;-52
2022/08/24 00:44:51;;;;;;;21.77;16.77;;;21.60;99.90;;;;;;4994946;28;20235;-52
2022/08/24 00:47:30;;;;;;;21.33;16.07;;;21.50;99.90;;;;;;4993064;28;20851;-52
2022/08/24 00:50:05;;;;;;;19.60;17.50;;;21.60;99.90;;;;;;4978283;28;20237;-52
2022/08/24 00:52:38;;;;;;;19.57;17.27;;;21.60;99.90;;;;;;4988725;28;20534;-52
2022/08/24 00:55:20;;;;;;;18.10;16.23;;;21.40;99.90;;;;;;4992131;28;20318;-51
2022/08/24 00:57:50;;;;;;;19.83;17.03;;;21.50;99.90;;;;;;4993962;28;20264;-51
2022/08/24 01:00:22;;;;;;;19.13;17.13;;;21.50;99.90;;;;;;4988778;28;20323;-53
2022/08/24 01:02:53;;;;;;;19.23;17.13;;;21.50;99.90;;;;;;4984396;28;20321;-52
2022/08/24 01:05:20;;;;;;;18.97;16.80;;;21.60;99.90;;;;;;4991244;28;20197;-52
2022/08/24 01:07:48;;;;;;;18.90;16.73;;;21.60;99.90;;;;;;4988726;28;20209;-53
2022/08/24 01:10:19;;;;;;;19.13;16.13;;;21.70;99.90;;;;;;4988712;28;20198;-52
2022/08/24 01:12:51;;;;;;;20.67;17.20;;;21.80;99.90;;;;;;4989848;28;20275;-52
2022/08/24 01:15:28;;;;;;;20.43;17.13;;;21.60;99.90;;;;;;4988392;28;20216;-52
2022/08/24 01:20:48;;;;;;;21.37;16.57;;;21.40;99.90;;;;;;4987448;28;20208;-53
2022/08/24 01:23:36;;;;;;;18.40;16.50;;;21.40;99.90;;;;;;4990735;28;20238;-52
2022/08/24 01:26:05;;;;;;;21.90;17.03;;;21.40;99.90;;;;;;4985337;28;20273;-51
2022/08/24 01:28:35;;;;;;;19.50;16.87;;;21.30;99.90;;;;;;4991660;28;20756;-51
2022/08/24 01:31:03;;;;;;;20.07;17.63;;;21.30;99.90;;;;;;4987579;28;20623;-52
2022/08/24 01:33:31;;;;;;;18.80;16.80;;;21.20;99.90;;;;;;4990751;28;20708;-50
2022/08/24 01:36:08;;;;;;;20.73;17.30;;;21.20;99.90;;;;;;4989102;28;20328;-52
2022/08/24 01:38:35;;;;;;;20.83;17.57;;;21.20;99.90;;;;;;4989796;28;20203;-51
2022/08/24 01:41:03;;;;;;;18.97;16.70;;;21.30;99.90;;;;;;4990348;28;20237;-52
2022/08/24 01:43:31;;;;;;;20.07;17.37;;;21.30;99.90;;;;;;4992319;28;20204;-52
2022/08/24 01:46:03;;;;;;;20.80;17.10;;;21.20;99.90;;;;;;4990311;28;21215;-52
2022/08/24 01:48:30;;;;;;;21.70;17.53;;;21.30;99.90;;;;;;4991433;28;20259;-51
2022/08/24 01:50:57;;;;;;;25.20;17.83;;;21.20;99.90;;;;;;4994881;28;20617;-52
2022/08/24 01:53:24;;;;;;;20.27;17.17;;;21.20;99.90;;;;;;4989975;28;20304;-52
2022/08/24 01:55:51;;;;;;;19.07;16.60;;;21.30;99.90;;;;;;4990201;28;20286;-52
2022/08/24 01:58:18;;;;;;;20.50;16.87;;;21.30;99.90;;;;;;4991732;28;20288;-50
2022/08/24 02:00:46;;;;;;;19.63;15.77;;;21.30;99.90;;;;;;4990926;28;20702;-51
2022/08/24 02:03:13;;;;;;;19.90;17.40;;;21.40;99.90;;;;;;4990992;28;20248;-51
2022/08/24 02:05:39;;;;;;;19.53;16.77;;;21.30;99.90;;;;;;4991690;28;20201;-52
2022/08/24 02:08:07;;;;;;;19.90;16.80;;;21.30;99.90;;;;;;4991984;28;20642;-52
2022/08/24 02:10:34;;;;;;;17.67;15.80;;;21.30;99.90;;;;;;4992484;28;20269;-52
2022/08/24 02:13:02;;;;;;;19.63;17.50;;;21.30;99.90;;;;;;4992392;28;20296;-52
2022/08/24 02:15:38;;;;;;;21.60;18.60;;;21.30;99.90;;;;;;4988044;28;20788;-52
2022/08/24 02:18:08;;;;;;;19.03;16.43;;;21.20;99.90;;;;;;4983616;28;20320;-51
2022/08/24 02:20:41;;;;;;;20.90;17.70;;;21.20;99.90;;;;;;4984012;28;20866;-51
2022/08/24 02:23:08;;;;;;;18.10;15.80;;;21.20;99.90;;;;;;4982635;28;20308;-52
2022/08/24 02:25:35;;;;;;;19.43;17.20;;;21.20;99.90;;;;;;4987663;28;20774;-52
2022/08/24 02:28:03;;;;;;;20.60;17.27;;;21.20;99.90;;;;;;4987921;28;20611;-53
2022/08/24 02:30:30;;;;;;;22.43;18.07;;;21.20;99.90;;;;;;4984757;28;20237;-51
2022/08/24 02:32:58;;;;;;;24.13;18.70;;;21.20;99.90;;;;;;4985618;28;20305;-52
2022/08/24 02:35:28;;;;;;;20.13;16.77;;;21.20;99.90;;;;;;4987031;28;20723;-52
2022/08/24 02:37:55;;;;;;;19.13;16.90;;;21.10;99.90;;;;;;4981691;28;20217;-52
2022/08/24 02:40:23;;;;;;;21.23;17.17;;;21.00;99.90;;;;;;4983776;28;20229;-52
2022/08/24 02:42:50;;;;;;;18.93;16.63;;;21.00;99.90;;;;;;4982769;28;20205;-52
2022/08/24 02:45:18;;;;;;;19.13;15.93;;;21.00;99.90;;;;;;4983465;28;20624;-52
2022/08/24 02:47:45;;;;;;;19.27;17.07;;;21.00;99.90;;;;;;4987334;28;20264;-52
2022/08/24 02:50:14;;;;;;;19.77;16.43;;;21.10;99.90;;;;;;4977932;28;20716;-52
2022/08/24 02:52:41;;;;;;;19.90;16.13;;;21.10;99.90;;;;;;4994796;28;20693;-52
2022/08/24 02:55:13;;;;;;;20.00;16.57;;;21.00;99.90;;;;;;4990489;28;20263;-51
2022/08/24 02:57:40;;;;;;;18.97;16.70;;;21.00;99.90;;;;;;4989979;28;20254;-50
2022/08/24 03:00:12;;;;;;;20.00;16.70;;;20.90;99.90;;;;;;4990546;28;20249;-50
2022/08/24 03:02:39;;;;;;;19.47;15.50;;;20.80;99.90;;;;;;4989436;28;20657;-51
2022/08/24 03:05:07;;;;;;;17.93;15.40;;;20.90;99.90;;;;;;4987555;28;20201;-51
2022/08/24 03:07:34;;;;;;;17.77;15.50;;;20.90;99.90;;;;;;4995030;28;20256;-51
2022/08/24 03:10:02;;;;;;;17.73;15.80;;;20.90;99.90;;;;;;4988758;28;20698;-51
2022/08/24 03:12:29;;;;;;;16.97;14.60;;;20.90;99.90;;;;;;4986870;28;20205;-51
2022/08/24 03:14:56;;;;;;;19.97;15.43;;;20.90;99.90;;;;;;4994340;28;20257;-50
2022/08/24 03:17:23;;;;;;;18.50;16.27;;;20.90;99.90;;;;;;4992106;28;20272;-49
2022/08/24 03:19:50;;;;;;;18.80;16.27;;;20.90;99.90;;;;;;4994686;28;20198;-51
2022/08/24 03:22:17;;;;;;;20.77;17.30;;;20.80;99.90;;;;;;4995687;28;20271;-51
2022/08/24 03:24:44;;;;;;;20.33;16.80;;;20.80;99.90;;;;;;4993454;28;20206;-50
2022/08/24 03:27:12;;;;;;;20.03;17.43;;;20.80;99.90;;;;;;4997007;28;20645;-50
2022/08/24 03:29:40;;;;;;;20.13;16.33;;;20.80;99.90;;;;;;4987970;28;20262;-50
2022/08/24 03:32:07;;;;;;;21.03;16.33;;;20.90;99.90;;;;;;4989443;28;20259;-51
2022/08/24 03:34:34;;;;;;;20.83;17.20;;;20.90;99.90;;;;;;4987317;28;20205;-51
2022/08/24 03:37:01;;;;;;;19.50;16.83;;;20.90;99.90;;;;;;4985085;28;20226;-52
2022/08/24 03:39:28;;;;;;;19.07;15.63;;;20.80;99.90;;;;;;4986988;28;20229;-52
2022/08/24 03:41:55;;;;;;;19.40;16.30;;;20.80;99.90;;;;;;4992463;28;20253;-52
2022/08/24 03:44:24;;;;;;;18.80;16.17;;;20.70;99.90;;;;;;4988851;28;20239;-53
2022/08/24 03:46:52;;;;;;;17.33;15.03;;;20.70;99.90;;;;;;4985963;28;20378;-51
2022/08/24 03:49:20;;;;;;;17.63;14.50;;;20.70;99.90;;;;;;4986380;28;20298;-51
2022/08/24 03:51:48;;;;;;;17.57;14.37;;;20.70;99.90;;;;;;4988420;28;20348;-52
2022/08/24 03:54:15;;;;;;;14.17;12.53;;;20.60;99.90;;;;;;4987332;28;20230;-51
2022/08/24 03:56:42;;;;;;;12.90;11.50;;;20.60;99.90;;;;;;4990052;28;20265;-52
2022/08/24 03:59:09;;;;;;;13.30;11.70;;;20.60;99.90;;;;;;4991150;28;20308;-50
2022/08/24 04:01:37;;;;;;;13.73;11.67;;;20.50;99.90;;;;;;4989655;28;20281;-50
2022/08/24 04:04:04;;;;;;;12.97;10.70;;;20.50;99.90;;;;;;4993112;28;20631;-51
2022/08/24 04:06:31;;;;;;;11.87;10.60;;;20.50;99.90;;;;;;4990375;28;20198;-50
2022/08/24 04:08:58;;;;;;;10.53;9.23;;;20.50;99.90;;;;;;4993750;28;20340;-52
2022/08/24 04:11:27;;;;;;;12.20;10.73;;;20.40;99.90;;;;;;4977989;28;20202;-50
2022/08/24 04:13:57;;;;;;;11.53;10.37;;;20.50;99.90;;;;;;4996113;28;20673;-52
2022/08/24 04:16:25;;;;;;;11.37;10.17;;;20.50;99.90;;;;;;4989570;28;20824;-51
2022/08/24 04:18:52;;;;;;;12.37;11.17;;;20.40;99.90;;;;;;4998303;28;20225;-51
2022/08/24 04:21:23;;;;;;;12.63;11.33;;;20.40;99.90;;;;;;4995377;28;20230;-51
2022/08/24 04:23:51;;;;;;;11.57;10.40;;;20.50;99.90;;;;;;4999440;28;20202;-51
2022/08/24 04:26:22;;;;;;;12.97;11.67;;;20.40;99.90;;;;;;4995079;28;20630;-50
2022/08/24 04:29:10;;;;;;;12.20;11.00;;;20.40;99.90;;;;;;4995959;28;20202;-52
2022/08/24 04:31:38;;;;;;;12.73;11.43;;;20.40;99.90;;;;;;4993154;28;20682;-52
2022/08/24 04:34:06;;;;;;;14.23;11.63;;;20.40;99.90;;;;;;4992969;28;20292;-51
2022/08/24 04:36:34;;;;;;;16.50;12.20;;;20.40;99.90;;;;;;4992136;28;20202;-51
2022/08/24 04:39:02;;;;;;;13.27;11.90;;;20.50;99.90;;;;;;4991871;28;20222;-52
2022/08/24 04:41:28;;;;;;;15.00;12.47;;;20.50;99.90;;;;;;4994700;28;20329;-51
2022/08/24 04:43:58;;;;;;;18.30;14.67;;;20.50;99.90;;;;;;5007114;28;20198;-51
2022/08/24 04:46:26;;;;;;;16.73;14.73;;;20.50;99.90;;;;;;4993056;28;20257;-51
2022/08/24 04:48:53;;;;;;;19.23;15.73;;;20.60;99.90;;;;;;4996068;28;20201;-51
2022/08/24 04:51:21;;;;;;;17.07;14.87;;;20.40;99.90;;;;;;4998626;28;20202;-50
2022/08/24 04:53:49;;;;;;;20.20;16.87;;;20.40;99.90;;;;;;4992890;28;20296;-51
2022/08/24 04:56:19;;;;;;;20.30;16.30;;;20.60;99.90;;;;;;4992740;28;20205;-52
2022/08/24 04:58:46;;;;;;;18.27;14.83;;;20.40;99.90;;;;;;4995606;28;20248;-50
2022/08/24 05:01:16;;;;;;;17.90;15.60;;;20.50;99.90;;;;;;4992407;28;20333;-53
2022/08/24 05:03:49;;;;;;;17.23;15.17;;;20.60;99.90;;;;;;4995371;28;20675;-51
2022/08/24 05:06:18;;;;;;;20.13;16.27;;;20.50;99.90;;;;;;4993418;28;20406;-51
2022/08/24 05:08:46;;;;;;;20.70;16.67;;;20.50;99.90;;;;;;4992181;28;20205;-51
2022/08/24 05:11:14;;;;;;;19.47;16.07;;;20.40;99.90;;;;;;4989507;28;20237;-51
2022/08/24 05:13:41;;;;;;;18.77;15.97;;;20.50;99.90;;;;;;4991819;28;21155;-53
2022/08/24 05:16:11;;;;;;;19.87;17.20;;;20.60;99.90;;;;;;4991975;28;20208;-51
2022/08/24 05:18:39;;;;;;;20.00;17.30;;;20.60;99.90;;;;;;4992249;28;20218;-50
2022/08/24 05:21:11;;;;;;;23.30;17.80;;;20.70;99.90;;;;;;4995837;28;20200;-51
2022/08/24 05:23:40;;;;;;;21.50;17.53;;;20.70;99.90;;;;;;4996961;28;20658;-52
2022/08/24 05:26:17;;;;;;;21.63;16.87;;;20.70;99.90;;;;;;4996185;28;20201;-51
2022/08/24 05:28:44;;;;;;;22.60;17.77;;;20.70;99.90;;;;;;4995286;28;20230;-50
2022/08/24 05:31:12;;;;;;;20.50;18.30;;;20.70;99.90;;;;;;4993687;28;20228;-51
2022/08/24 05:33:39;;;;;;;20.60;18.40;;;20.80;99.90;;;;;;4981442;28;20631;-49
2022/08/24 05:36:25;;;;;;;21.87;18.63;;;20.90;99.90;;;;;;4994439;28;20615;-51
2022/08/24 05:38:56;;;;;;;22.57;19.47;;;20.80;99.90;;;;;;4982762;28;20697;-51
2022/08/24 05:41:23;;;;;;;20.83;18.50;;;20.80;99.90;;;;;;4995297;28;20309;-51
2022/08/24 05:43:50;;;;;;;20.60;18.17;;;20.80;99.90;;;;;;4997006;28;20224;-50
2022/08/24 05:46:17;;;;;;;22.57;18.90;;;20.90;99.90;;;;;;4997280;28;20329;-52
2022/08/24 05:48:46;;;;;;;22.27;19.50;;;20.90;99.90;;;;;;4996190;28;20300;-53
2022/08/24 05:51:19;;;;;;;23.67;20.03;;;20.90;99.90;;;;;;4990676;28;20212;-51
2022/08/24 05:53:46;;;;;;;28.87;21.43;;;20.90;99.90;;;;;;4990135;28;20210;-51
2022/08/24 05:56:15;;;;;;;26.77;21.60;;;21.00;99.90;;;;;;4987817;28;20232;-51
2022/08/24 05:58:43;;;;;;;25.13;21.60;;;21.00;99.90;;;;;;4993798;28;20241;-49
2022/08/24 06:01:16;;;;;;;29.33;23.50;;;21.00;99.90;;;;;;4986577;28;20201;-51
2022/08/24 06:03:44;;;;;;;28.13;23.37;;;21.10;99.90;;;;;;4992486;28;20229;-50
2022/08/24 06:06:12;;;;;;;27.93;23.30;;;21.20;99.90;;;;;;4987978;28;20205;-52
2022/08/24 06:08:41;;;;;;;26.83;22.47;;;21.20;99.90;;;;;;4990672;28;20335;-52
2022/08/24 06:11:09;;;;;;;25.53;22.20;;;21.20;99.90;;;;;;4991703;28;20236;-53
2022/08/24 06:13:37;;;;;;;22.33;18.43;;;21.30;99.90;;;;;;4991782;28;20619;-51
2022/08/24 06:16:12;;;;;;;21.37;19.07;;;21.20;99.90;;;;;;4989300;28;20260;-52
2022/08/24 06:18:49;;;;;;;16.08;14.32;;;21.40;99.90;;;;;;4662794;28;10001203;-52
2022/08/24 06:21:23;;;;;;;18.70;16.20;;;21.40;99.90;;;;;;4974728;28;20215;-52
2022/08/24 06:23:53;;;;;;;24.33;19.57;;;21.30;99.90;;;;;;4992336;28;20197;-51
2022/08/24 06:29:07;;;;;;;22.40;19.50;;;21.40;99.90;;;;;;4992360;28;20618;-52
2022/08/24 06:31:36;;;;;;;23.90;20.33;;;21.60;99.90;;;;;;4989663;28;20202;-52
2022/08/24 06:34:10;;;;;;;25.67;21.30;;;21.70;99.90;;;;;;4995150;28;20216;-51
2022/08/24 06:36:37;;;;;;;23.77;21.13;;;21.80;99.90;;;;;;4986842;28;20249;-51
2022/08/24 06:39:07;;;;;;;25.20;21.67;;;22.00;99.90;;;;;;4987450;28;20229;-53
2022/08/24 06:41:37;;;;;;;26.33;21.10;;;22.10;99.90;;;;;;4988119;28;20206;-51
2022/08/24 06:44:05;;;;;;;27.87;22.20;;;22.30;99.90;;;;;;4991475;28;20202;-52
2022/08/24 06:46:32;;;;;;;26.23;20.97;;;22.30;99.90;;;;;;4989568;28;20237;-51
2022/08/24 06:48:59;;;;;;;27.40;22.40;;;22.50;99.90;;;;;;4986612;28;20215;-51
2022/08/24 06:51:27;;;;;;;25.80;21.00;;;22.70;99.90;;;;;;4978799;28;20229;-51
2022/08/24 06:53:54;;;;;;;25.27;20.20;;;22.70;99.90;;;;;;4992199;28;20235;-52
2022/08/24 06:56:21;;;;;;;26.33;21.07;;;22.70;99.90;;;;;;4991287;28;20206;-52
2022/08/24 06:58:48;;;;;;;25.90;20.27;;;22.80;99.90;;;;;;4993815;28;20229;-52
2022/08/24 07:01:21;;;;;;;24.03;18.63;;;23.00;99.90;;;;;;4991426;28;20210;-52
2022/08/24 07:03:48;;;;;;;21.27;18.13;;;23.40;9.40;;;;;;4986685;28;20225;-52
2022/08/24 07:06:15;;;;;;;23.37;19.97;;;23.70;1.00;;;;;;4990271;28;20269;-53
2022/08/24 07:08:42;;;;;;;22.40;19.63;;;23.90;1.00;;;;;;4991073;28;20641;-53
2022/08/24 07:11:13;;;;;;;22.63;18.23;;;24.00;1.00;;;;;;4991805;28;20233;-51
2022/08/24 07:13:40;;;;;;;22.67;19.60;;;24.20;99.90;;;;;;4994896;28;20698;-53
2022/08/24 07:16:08;;;;;;;23.10;18.77;;;24.40;1.00;;;;;;4992132;28;20248;-52
2022/08/24 07:18:36;;;;;;;26.30;19.93;;;24.50;1.00;;;;;;4994868;28;20276;-52
2022/08/24 07:21:03;;;;;;;20.33;18.30;;;24.60;99.90;;;;;;4989873;28;20202;-52
2022/08/24 07:23:31;;;;;;;19.83;17.73;;;24.80;1.00;;;;;;4997032;28;20284;-52
2022/08/24 07:26:11;;;;;;;20.23;16.00;;;24.70;99.90;;;;;;4994887;28;20203;-52
2022/08/24 07:29:06;;;;;;;21.23;16.87;;;24.60;1.00;;;;;;4995483;28;20214;-52
2022/08/24 07:31:35;;;;;;;20.23;16.23;;;24.40;99.90;;;;;;4991053;28;20210;-52
2022/08/24 07:34:02;;;;;;;21.13;17.73;;;24.60;99.90;;;;;;4990948;28;20209;-53
2022/08/24 07:36:29;;;;;;;20.27;15.97;;;24.50;1.00;;;;;;4991488;28;20207;-52
2022/08/24 07:38:57;;;;;;;18.47;16.57;;;24.90;1.00;;;;;;4998178;28;20215;-53
2022/08/24 07:41:26;;;;;;;18.73;15.67;;;25.10;5.80;;;;;;4998369;28;20198;-53
2022/08/24 07:44:14;;;;;;;17.10;15.37;;;25.00;1.00;;;;;;5001607;28;20213;-52
2022/08/24 07:46:41;;;;;;;16.60;14.30;;;24.80;99.90;;;;;;4995787;28;20543;-53
2022/08/24 07:49:09;;;;;;;18.07;15.37;;;24.80;1.00;;;;;;4998706;28;20382;-53
2022/08/24 07:51:56;;;;;;;19.30;16.20;;;24.80;99.90;;;;;;5001929;28;20225;-52
2022/08/24 07:54:23;;;;;;;18.47;14.67;;;24.60;78.80;;;;;;4993157;28;20259;-51
2022/08/24 07:56:51;;;;;;;16.77;14.60;;;24.60;99.90;;;;;;4999729;28;20635;-52
2022/08/24 07:59:18;;;;;;;15.73;13.93;;;24.90;1.00;;;;;;4991129;28;20677;-52
2022/08/24 08:01:44;;;;;;;14.23;12.70;;;25.20;1.00;;;;;;4996204;28;20263;-52
2022/08/24 08:04:13;;;;;;;16.70;10.52;;;25.30;1.00;;;;;;4994968;28;20198;-51
2022/08/24 08:06:41;;;;;;;11.77;10.53;;;25.30;97.50;;;;;;4996104;28;20198;-52
2022/08/24 08:09:08;;;;;;;10.60;9.37;;;25.50;1.00;;;;;;4995542;28;20293;-51
2022/08/24 08:11:35;;;;;;;13.97;10.20;;;25.60;99.90;;;;;;4997273;28;20206;-51
2022/08/24 08:14:02;;;;;;;12.33;9.63;;;25.60;1.00;;;;;;4996484;28;20296;-51
2022/08/24 08:16:28;;;;;;;13.47;10.30;;;25.60;1.00;;;;;;4994585;28;20280;-53
2022/08/24 08:18:55;;;;;;;13.77;10.27;;;25.80;1.00;;;;;;4999637;28;20627;-52
2022/08/24 08:24:31;;;;;;;12.33;9.50;;;26.10;1.00;;;;;;4997724;28;20197;-53
2022/08/24 08:26:59;;;;;;;10.57;8.47;;;26.20;1.00;;;;;;4997972;28;20205;-53
2022/08/24 08:29:26;;;;;;;9.07;7.35;;;26.40;99.90;;;;;;4996715;28;20204;-53
2022/08/24 08:31:54;;;;;;;8.97;7.47;;;26.70;99.90;;;;;;4991811;28;20682;-53
2022/08/24 08:34:21;;;;;;;11.73;8.53;;;26.80;1.00;;;;;;4985250;28;20218;-53
2022/08/24 08:36:49;;;;;;;11.15;9.20;;;26.90;1.00;;;;;;4996670;28;20292;-53
2022/08/24 08:39:19;;;;;;;12.63;7.90;;;27.00;1.00;;;;;;4998505;28;20752;-53
2022/08/24 08:41:57;;;;;;;9.53;8.10;;;27.40;1.00;;;;;;4995544;28;20280;-52
2022/08/24 08:44:36;;;;;;;14.27;8.63;;;27.70;1.00;;;;;;4991311;28;20739;-53
2022/08/24 08:47:44;;;;;;;10.17;8.80;;;27.70;99.90;;;;;;4992548;28;20283;-53
2022/08/24 08:50:24;;;;;;;8.73;7.73;;;27.80;27.40;;;;;;4993867;28;20197;-53
2022/08/24 08:53:19;;;;;;;9.03;7.83;;;27.80;1.00;;;;;;4993823;28;20202;-53
2022/08/24 08:56:04;;;;;;;7.90;6.93;;;27.80;99.90;;;;;;4990259;28;20269;-50
2022/08/24 08:58:50;;;;;;;7.88;6.68;;;28.20;97.90;;;;;;4990663;28;20681;-52
2022/08/24 09:01:59;;;;;;;8.65;7.22;;;28.20;1.00;;;;;;5002564;28;20202;-53
2022/08/24 09:04:41;;;;;;;9.95;6.70;;;28.20;1.00;;;;;;4993059;28;20237;-53
2022/08/24 09:07:26;;;;;;;8.88;6.75;;;28.20;1.00;;;;;;4995325;28;20670;-53
2022/08/24 09:09:58;;;;;;;7.28;6.55;;;28.30;1.00;;;;;;4993202;28;20210;-53
2022/08/24 09:13:03;;;;;;;9.43;6.63;;;28.40;99.90;;;;;;4996089;28;20240;-54
2022/08/24 09:15:54;;;;;;;6.05;5.47;;;28.30;1.00;;;;;;4994863;28;20646;-55
2022/08/24 09:18:44;;;;;;;4.00;3.60;;;28.20;99.90;;;;;;4997380;28;20578;-55
2022/08/24 09:21:32;;;;;;;4.55;4.07;;;28.30;1.00;;;;;;4995482;28;20288;-55
2022/08/24 09:24:14;;;;;;;5.90;4.25;;;29.10;1.00;;;;;;4994680;28;20234;-55
2022/08/24 09:27:09;;;;;;;8.98;5.00;;;29.50;1.00;;;;;;4995719;28;20198;-55
2022/08/24 09:29:46;;;;;;;4.97;4.47;;;29.50;99.90;;;;;;4992820;28;20245;-55
2022/08/24 09:32:48;;;;;;;4.50;3.50;;;29.20;1.00;;;;;;4996130;28;20217;-55
2022/08/24 09:35:29;;;;;;;5.95;3.97;;;30.00;1.00;;;;;;4993340;28;20216;-55
2022/08/24 09:38:20;;;;;;;5.75;4.07;;;30.20;99.90;;;;;;4997361;28;20624;-56
2022/08/24 09:41:11;;;;;;;6.22;3.80;;;30.30;8.20;;;;;;4995251;28;20206;-56
2022/08/24 09:43:59;;;;;;;3.47;2.88;;;29.80;1.00;;;;;;4999247;28;20202;-55
2022/08/24 09:46:56;;;;;;;4.55;3.83;;;29.90;99.90;;;;;;4991236;28;20236;-55
2022/08/24 09:49:38;;;;;;;7.18;3.03;;;29.20;99.90;;;;;;4993649;28;20301;-55
2022/08/24 09:52:33;;;;;;;4.30;2.88;;;29.60;1.00;;;;;;4996175;28;20240;-54
2022/08/24 09:55:27;;;;;;;3.63;2.40;;;29.90;99.90;;;;;;4998145;28;20225;-55
2022/08/24 09:58:21;;;;;;;6.57;3.60;;;30.30;1.00;;;;;;4994025;28;20232;-56
2022/08/24 10:01:15;;;;;;;7.00;2.90;;;29.70;99.90;;;;;;4994558;28;20324;-55
2022/08/24 10:04:00;;;;;;;3.25;2.10;;;30.00;1.00;;;;;;4959236;28;20206;-55
2022/08/24 10:06:48;;;;;;;2.40;1.75;;;29.80;99.90;;;;;;4991986;28;21205;-55
2022/08/24 10:09:36;;;;;;;3.83;1.60;;;29.70;18.00;;;;;;4993111;28;20301;-55
2022/08/24 10:12:41;;;;;;;2.63;2.00;;;29.70;99.90;;;;;;4997375;28;20335;-54
2022/08/24 10:16:13;;;;;;;4.88;3.65;;;29.60;99.90;;;;;;4936221;28;20861;-55
2022/08/24 10:19:06;;;;;;;4.15;2.28;;;29.50;99.90;;;;;;4927766;29;20251;-55
2022/08/24 10:21:42;;;;;;;5.95;2.92;;;29.20;99.90;;;;;;4930332;29;20787;-54
2022/08/24 10:24:39;;;;;;;4.30;2.63;;;28.90;99.90;;;;;;4929638;29;20294;-57
2022/08/24 10:27:44;;;;;;;4.68;3.13;;;29.00;99.90;;;;;;4930605;29;20721;-56
2022/08/24 10:30:45;;;;;;;2.78;2.53;;;29.10;99.90;;;;;;4931204;29;20215;-56
2022/08/24 10:33:20;;;;;;;3.13;1.90;;;29.20;99.90;;;;;;4928126;29;20207;-56
2022/08/24 10:36:14;;;;;;;3.42;2.22;;;29.30;99.90;;;;;;4930224;29;20675;-56
2022/08/24 10:45:51;;;;;;;2.42;2.22;;;29.30;99.90;;;;;;4926801;29;20731;-56
2022/08/24 10:48:30;;;;;;;3.97;2.42;;;29.20;99.90;;;;;;4940976;28;20210;-56
2022/08/24 10:51:38;;;;;;;4.03;2.40;;;29.00;99.90;;;;;;4989404;28;20201;-56
2022/08/24 10:54:11;;;;;;;5.90;2.33;;;29.00;99.90;;;;;;4990278;28;20313;-54
2022/08/24 10:56:58;;;;;;;3.38;2.40;;;29.20;99.90;;;;;;4993443;28;20257;-55
2022/08/24 10:59:48;;;;;;;3.10;2.25;;;29.20;99.90;;;;;;4995371;28;20801;-55
2022/08/24 11:02:30;;;;;;;4.22;2.30;;;29.20;99.90;;;;;;4995021;28;20292;-54
2022/08/24 11:05:06;;;;;;;3.10;1.63;;;29.40;99.90;;;;;;4997755;28;20734;-55
2022/08/24 11:07:34;;;;;;;4.50;1.63;;;29.30;99.90;;;;;;4991915;28;20229;-56
2022/08/24 11:10:06;;;;;;;3.17;1.33;;;29.50;99.90;;;;;;5025706;28;20221;-56
2022/08/24 11:12:41;;;;;;;1.85;0.80;;;29.40;99.90;;;;;;4994740;28;20244;-55
2022/08/24 11:15:17;;;;;;;1.30;1.00;;;29.30;99.90;;;;;;4992477;28;20271;-55
2022/08/24 11:18:01;;;;;;;3.33;0.93;;;29.40;99.90;;;;;;5001808;28;20295;-55
2022/08/24 11:20:40;;;;;;;1.58;1.02;;;29.30;99.90;;;;;;4992549;28;20216;-55
2022/08/24 11:23:13;;;;;;;0.85;0.82;;;29.40;99.90;;;;;;4995234;28;20205;-55
2022/08/24 11:26:12;;;;;;;0.77;0.70;;;29.50;99.90;;;;;;4994755;28;20209;-55
2022/08/24 11:28:45;;;;;;;0.90;0.70;;;29.90;99.90;;;;;;4994862;28;20284;-56
2022/08/24 11:31:26;;;;;;;2.47;1.13;;;30.10;99.90;;;;;;4991784;28;20190;-55
2022/08/24 11:34:27;;;;;;;1.80;0.90;;;30.10;99.90;;;;;;4993770;28;20689;-55
2022/08/24 11:36:54;;;;;;;3.33;0.70;;;30.90;99.90;;;;;;4991606;28;20233;-57
2022/08/24 11:39:35;;;;;;;1.17;0.60;;;31.80;99.90;;;;;;4986833;28;20213;-56
2022/08/24 11:42:43;;;;;;;1.60;1.00;;;32.70;99.90;;;;;;4992850;28;20675;-56
2022/08/24 11:45:30;;;;;;;1.00;0.90;;;32.10;99.90;;;;;;4999057;28;20209;-56
2022/08/24 11:48:22;;;;;;;1.23;0.93;;;31.20;99.90;;;;;;4962223;28;20324;-56
2022/08/24 11:51:14;;;;;;;0.80;0.80;;;31.20;99.90;;;;;;4998149;28;20336;-56
2022/08/24 11:54:06;;;;;;;4.30;1.00;;;32.20;99.90;;;;;;4998984;28;20198;-55
2022/08/24 11:56:49;;;;;;;2.78;0.90;;;33.70;99.90;;;;;;4999032;28;20655;-56
2022/08/24 11:59:41;;;;;;;1.52;0.88;;;33.90;99.90;;;;;;4995274;28;20241;-55
2022/08/24 12:02:16;;;;;;;3.13;0.70;;;35.30;99.90;;;;;;4991442;28;20229;-55
2022/08/24 12:05:02;;;;;;;0.98;0.68;;;35.00;99.90;;;;;;4992924;28;20558;-57
2022/08/24 12:07:43;;;;;;;2.10;0.60;;;34.20;99.90;;;;;;4995056;28;20289;-54
2022/08/24 12:10:25;;;;;;;2.47;0.80;;;34.40;99.90;;;;;;4995701;28;20717;-56
2022/08/24 12:13:22;;;;;;;5.97;0.90;;;33.50;99.90;;;;;;4987716;28;20217;-58
2022/08/24 12:15:49;;;;;;;3.10;0.93;;;33.80;99.90;;;;;;4992428;28;20727;-57
2022/08/24 12:18:59;;;;;;;1.77;1.00;;;33.30;99.90;;;;;;4993092;28;20295;-56
2022/08/24 12:21:31;;;;;;;2.15;0.95;;;33.90;99.90;;;;;;4931681;28;20488;-56
2022/08/24 12:24:02;;;;;;;2.08;0.80;;;32.90;99.90;;;;;;4996118;28;20345;-55
2022/08/24 12:26:36;;;;;;;0.75;0.75;;;33.50;99.90;;;;;;4995791;28;20770;-56
2022/08/24 12:29:27;;;;;;;2.05;0.80;;;34.70;99.90;;;;;;4997591;28;20689;-56
2022/08/24 12:32:04;;;;;;;2.42;1.23;;;34.50;99.90;;;;;;4994699;28;20863;-55
2022/08/24 12:34:35;;;;;;;1.77;1.17;;;33.10;99.90;;;;;;4993081;28;20205;-58
2022/08/24 12:37:17;;;;;;;3.13;0.90;;;33.00;99.90;;;;;;4992765;28;20298;-56
2022/08/24 12:39:58;;;;;;;2.65;1.10;;;35.50;99.90;;;;;;4993184;28;20276;-57
2022/08/24 12:42:38;;;;;;;1.77;1.10;;;35.40;99.90;;;;;;4998538;28;20197;-55
2022/08/24 12:45:13;;;;;;;2.78;1.25;;;34.20;99.90;;;;;;4993802;28;20662;-56
2022/08/24 12:47:53;;;;;;;1.77;1.10;;;34.40;99.90;;;;;;4996935;28;20676;-55
2022/08/24 12:50:24;;;;;;;1.50;1.10;;;34.00;99.90;;;;;;4979706;28;20197;-55
2022/08/24 12:53:15;;;;;;;3.03;1.20;;;33.70;99.90;;;;;;4995573;28;20209;-56
2022/08/24 12:56:17;;;;;;;1.83;1.25;;;33.10;99.90;;;;;;4997687;28;20570;-57
2022/08/24 12:59:12;;;;;;;2.92;1.30;;;32.40;99.90;;;;;;4994979;28;20202;-56
2022/08/24 13:01:56;;;;;;;2.30;1.00;;;33.40;99.90;;;;;;4995421;28;20206;-55
2022/08/24 13:04:35;;;;;;;1.70;1.27;;;32.70;99.90;;;;;;5009291;28;20206;-56
2022/08/24 13:07:40;;;;;;;3.38;1.73;;;31.90;99.90;;;;;;4997050;28;20288;-55
2022/08/24 13:10:38;;;;;;;3.67;1.75;;;31.70;99.90;;;;;;4996179;28;20732;-56
2022/08/24 13:13:09;;;;;;;2.35;1.10;;;32.90;99.90;;;;;;4992599;28;20256;-57
2022/08/24 13:15:36;;;;;;;2.75;1.63;;;34.00;99.90;;;;;;4995529;28;20256;-57
2022/08/24 13:18:06;;;;;;;3.88;1.48;;;33.70;99.90;;;;;;4992753;28;20212;-56
2022/08/24 13:20:42;;;;;;;1.85;1.55;;;33.40;99.90;;;;;;4990611;28;20229;-55
2022/08/24 13:23:10;;;;;;;1.60;1.27;;;34.60;99.90;;;;;;4992455;28;20190;-55
2022/08/24 13:26:17;;;;;;;2.22;1.50;;;34.50;99.90;;;;;;4991255;28;20205;-56
2022/08/24 13:28:48;;;;;;;1.40;1.30;;;35.30;99.90;;;;;;4991746;28;20293;-55